createdAt,value
2018-09-15T00:02:45.825Z,19.34
2018-09-15T00:06:49.308Z,19.32
2018-09-15T00:10:52.869Z,19.37
2018-09-15T00:14:56.500Z,19.36
2018-09-15T00:18:59.977Z,19.32
2018-09-15T00:23:03.548Z,19.25
2018-09-15T00:27:07.796Z,19.21
2018-09-15T00:31:11.255Z,19.19
2018-09-15T00:35:14.768Z,19.18
2018-09-15T00:39:18.516Z,19.16
2018-09-15T00:43:22.037Z,19.17
2018-09-15T00:47:25.617Z,19.17
2018-09-15T00:51:29.122Z,19.15
2018-09-15T00:55:32.767Z,19.15
2018-09-15T00:59:36.310Z,19.12
2018-09-15T01:03:39.821Z,19.11
2018-09-15T01:07:43.491Z,19.09
2018-09-15T01:11:47.059Z,19.06
2018-09-15T01:15:50.729Z,19.04
2018-09-15T01:19:54.482Z,19.02
2018-09-15T01:23:57.971Z,18.99
2018-09-15T01:28:01.406Z,18.97
2018-09-15T01:32:05.156Z,18.92
2018-09-15T01:36:09.785Z,18.88
2018-09-15T01:40:13.233Z,18.86
2018-09-15T01:44:16.737Z,18.83
2018-09-15T01:48:20.310Z,18.79
2018-09-15T01:52:24.039Z,18.75
2018-09-15T01:56:27.566Z,18.72
2018-09-15T02:00:31.076Z,18.68
2018-09-15T02:04:34.702Z,18.64
2018-09-15T02:08:38.254Z,18.58
2018-09-15T02:12:41.795Z,18.55
2018-09-15T02:16:45.487Z,18.52
2018-09-15T02:20:49.132Z,18.51
2018-09-15T02:24:52.577Z,18.46
2018-09-15T02:28:56.230Z,18.44
2018-09-15T02:32:59.965Z,18.40
2018-09-15T02:37:03.507Z,18.34
2018-09-15T02:41:08.007Z,18.30
2018-09-15T02:45:11.671Z,18.28
2018-09-15T02:49:15.308Z,18.27
2018-09-15T02:53:18.790Z,18.25
2018-09-15T02:57:22.275Z,18.23
2018-09-15T03:01:26.259Z,18.19
2018-09-15T03:05:29.752Z,18.16
2018-09-15T03:09:33.191Z,18.13
2018-09-15T03:13:38.021Z,18.12
2018-09-15T03:17:41.585Z,18.11
2018-09-15T03:21:46.115Z,18.10
2018-09-15T03:25:49.797Z,18.09
2018-09-15T03:29:53.511Z,18.08
2018-09-15T03:33:56.949Z,18.06
2018-09-15T03:38:01.587Z,18.05
2018-09-15T03:42:05.280Z,18.03
2018-09-15T03:46:09.868Z,17.99
2018-09-15T03:50:13.454Z,17.96
2018-09-15T03:54:19.807Z,17.93
2018-09-15T03:58:23.490Z,17.92
2018-09-15T04:02:27.171Z,17.90
2018-09-15T04:06:30.758Z,17.89
2018-09-15T04:10:34.247Z,17.87
2018-09-15T04:14:37.818Z,17.87
2018-09-15T04:18:41.332Z,17.89
2018-09-15T04:22:45.110Z,17.90
2018-09-15T04:26:48.904Z,17.90
2018-09-15T04:30:52.443Z,17.88
2018-09-15T04:34:56.068Z,17.85
2018-09-15T04:38:59.567Z,17.82
2018-09-15T04:43:03.231Z,17.81
2018-09-15T04:47:06.988Z,17.81
2018-09-15T04:51:10.863Z,17.83
2018-09-15T04:55:14.481Z,17.88
2018-09-15T04:59:17.973Z,17.89
2018-09-15T05:03:21.643Z,17.89
2018-09-15T05:07:25.211Z,17.95
2018-09-15T05:11:28.759Z,17.98
2018-09-15T05:15:32.262Z,17.97
2018-09-15T05:19:35.786Z,17.97
2018-09-15T05:23:39.299Z,17.99
2018-09-15T05:27:42.783Z,18.00
2018-09-15T05:31:46.687Z,17.97
2018-09-15T05:35:50.174Z,17.96
2018-09-15T05:39:53.767Z,17.99
2018-09-15T05:43:57.394Z,18.05
2018-09-15T05:48:01.107Z,18.06
2018-09-15T05:52:04.674Z,18.08
2018-09-15T05:56:08.425Z,18.09
2018-09-15T06:00:12.004Z,18.11
2018-09-15T06:04:15.682Z,18.10
2018-09-15T06:08:19.339Z,18.14
2018-09-15T06:12:22.866Z,18.17
2018-09-15T06:16:26.441Z,18.20
2018-09-15T06:20:31.292Z,18.23
2018-09-15T06:24:34.822Z,18.25
2018-09-15T06:28:38.486Z,18.27
2018-09-15T06:32:41.958Z,18.28
2018-09-15T06:36:45.795Z,18.34
2018-09-15T06:40:49.265Z,18.43
2018-09-15T06:44:52.689Z,18.49
2018-09-15T06:48:56.249Z,18.58
2018-09-15T06:52:59.847Z,18.70
2018-09-15T06:57:03.653Z,18.81
2018-09-15T07:01:07.563Z,18.87
2018-09-15T07:05:11.070Z,18.94
2018-09-15T07:09:15.149Z,19.02
2018-09-15T07:13:18.822Z,19.13
2018-09-15T07:17:22.289Z,19.23
2018-09-15T07:21:25.906Z,19.35
2018-09-15T07:25:29.546Z,19.49
2018-09-15T07:29:32.987Z,19.63
2018-09-15T07:33:36.507Z,19.67
2018-09-15T07:37:40.045Z,19.74
2018-09-15T07:41:43.590Z,19.83
2018-09-15T07:45:47.150Z,19.99
2018-09-15T07:49:50.746Z,20.09
2018-09-15T07:53:54.366Z,20.17
2018-09-15T07:57:58.055Z,20.21
2018-09-15T08:02:03.043Z,20.23
2018-09-15T08:06:06.466Z,20.23
2018-09-15T08:10:09.974Z,20.27
2018-09-15T08:14:13.470Z,20.32
2018-09-15T08:18:16.982Z,20.35
2018-09-15T08:22:20.496Z,20.42
2018-09-15T08:26:23.988Z,20.54
2018-09-15T08:30:27.574Z,20.68
2018-09-15T08:34:31.106Z,20.80
2018-09-15T08:38:34.824Z,20.90
2018-09-15T08:42:38.311Z,21.00
2018-09-15T08:46:41.774Z,21.16
2018-09-15T08:50:45.406Z,21.29
2018-09-15T08:54:48.918Z,21.40
2018-09-15T08:58:52.674Z,21.49
2018-09-15T09:02:56.258Z,21.56
2018-09-15T09:11:02.302Z,21.73
2018-09-15T09:15:06.034Z,21.86
2018-09-15T09:19:10.754Z,22.04
2018-09-15T09:23:14.169Z,22.21
2018-09-15T09:27:17.705Z,22.32
2018-09-15T09:31:21.315Z,22.42
2018-09-15T09:35:24.938Z,22.53
2018-09-15T09:39:28.441Z,22.61
2018-09-15T09:43:31.942Z,22.71
2018-09-15T09:47:35.806Z,22.79
2018-09-15T09:51:39.330Z,22.84
2018-09-15T09:55:42.887Z,22.86
2018-09-15T09:59:47.665Z,22.86
2018-09-15T10:03:51.605Z,22.85
2018-09-15T10:07:55.078Z,22.88
2018-09-15T10:11:58.673Z,22.89
2018-09-15T10:16:02.500Z,22.88
2018-09-15T10:20:07.062Z,22.86
2018-09-15T10:24:11.037Z,22.88
2018-09-15T10:28:14.598Z,22.89
2018-09-15T10:32:18.107Z,22.90
2018-09-15T10:36:22.083Z,22.92
2018-09-15T10:40:25.712Z,22.97
2018-09-15T10:44:29.303Z,23.07
2018-09-15T10:48:32.914Z,23.12
2018-09-15T10:52:36.425Z,23.17
2018-09-15T10:56:40.071Z,23.22
2018-09-15T11:00:43.759Z,23.26
2018-09-15T11:04:47.678Z,23.24
2018-09-15T11:08:51.178Z,23.30
2018-09-15T11:12:54.768Z,23.31
2018-09-15T11:16:58.403Z,23.35
2018-09-15T11:21:02.187Z,23.41
2018-09-15T11:25:06.906Z,23.48
2018-09-15T11:29:10.595Z,23.57
2018-09-15T11:33:14.301Z,23.68
2018-09-15T11:37:18.002Z,23.69
2018-09-15T11:41:21.626Z,23.69
2018-09-15T11:45:25.360Z,23.69
2018-09-15T11:49:29.023Z,23.69
2018-09-15T11:53:32.521Z,23.68
2018-09-15T11:57:36.035Z,23.72
2018-09-15T12:01:41.804Z,23.76
2018-09-15T12:05:45.508Z,23.80
2018-09-15T12:09:49.051Z,23.81
2018-09-15T12:13:52.537Z,23.79
2018-09-15T12:17:56.080Z,23.80
2018-09-15T12:21:59.719Z,23.83
2018-09-15T12:26:03.214Z,23.86
2018-09-15T12:30:07.298Z,23.95
2018-09-15T12:34:10.815Z,24.06
2018-09-15T12:38:14.385Z,24.04
2018-09-15T12:42:18.043Z,24.02
2018-09-15T12:46:21.929Z,24.06
2018-09-15T12:50:25.483Z,24.06
2018-09-15T12:54:29.194Z,24.06
2018-09-15T12:58:32.726Z,24.08
2018-09-15T13:02:37.642Z,24.12
2018-09-15T13:06:41.245Z,24.13
2018-09-15T13:10:44.758Z,24.09
2018-09-15T13:14:50.654Z,24.03
2018-09-15T13:18:55.219Z,24.03
2018-09-15T13:22:58.850Z,24.10
2018-09-15T13:27:02.435Z,24.19
2018-09-15T13:31:06.126Z,24.30
2018-09-15T13:35:10.317Z,24.34
2018-09-15T13:39:13.806Z,24.34
2018-09-15T13:43:17.247Z,24.32
2018-09-15T13:47:21.099Z,24.35
2018-09-15T13:51:24.836Z,24.34
2018-09-15T13:55:28.314Z,24.32
2018-09-15T13:59:32.055Z,24.27
2018-09-15T14:03:35.558Z,24.21
2018-09-15T14:07:39.526Z,24.21
2018-09-15T14:11:43.090Z,24.13
2018-09-15T14:15:46.673Z,24.04
2018-09-15T14:19:50.184Z,23.97
2018-09-15T14:23:54.827Z,23.90
2018-09-15T14:27:58.375Z,23.88
2018-09-15T14:32:01.867Z,23.85
2018-09-15T14:36:05.380Z,23.82
2018-09-15T14:40:08.976Z,23.82
2018-09-15T14:44:13.725Z,23.80
2018-09-15T14:48:17.193Z,23.81
2018-09-15T14:52:20.752Z,23.81
2018-09-15T14:56:24.307Z,23.79
2018-09-15T15:00:28.806Z,23.77
2018-09-15T15:04:32.297Z,23.78
2018-09-15T15:08:35.810Z,23.80
2018-09-15T15:12:39.391Z,23.84
2018-09-15T15:16:43.107Z,23.89
2018-09-15T15:20:46.682Z,23.91
2018-09-15T15:24:50.367Z,23.89
2018-09-15T15:28:54.216Z,23.88
2018-09-15T15:32:58.016Z,23.82
2018-09-15T15:37:01.947Z,23.80
2018-09-15T15:41:05.496Z,23.76
2018-09-15T15:45:09.230Z,23.73
2018-09-15T15:49:12.834Z,23.67
2018-09-15T15:53:16.449Z,23.59
2018-09-15T15:57:19.998Z,23.58
2018-09-15T16:01:23.601Z,23.56
2018-09-15T16:05:27.702Z,23.47
2018-09-15T16:09:31.315Z,23.43
2018-09-15T16:13:35.078Z,23.42
2018-09-15T16:17:38.697Z,23.40
2018-09-15T16:21:42.187Z,23.38
2018-09-15T16:25:45.801Z,23.33
2018-09-15T16:29:49.191Z,23.27
2018-09-15T16:33:52.943Z,23.22
2018-09-15T16:37:56.403Z,23.17
2018-09-15T16:42:00.022Z,23.05
2018-09-15T16:46:03.794Z,22.99
2018-09-15T16:50:07.338Z,22.99
2018-09-15T16:54:10.848Z,22.97
2018-09-15T16:58:14.424Z,22.96
2018-09-15T17:02:17.902Z,22.92
2018-09-15T17:06:21.468Z,22.89
2018-09-15T17:10:24.930Z,22.84
2018-09-15T17:14:29.470Z,22.81
2018-09-15T17:18:33.350Z,22.80
2018-09-15T17:22:36.835Z,22.75
2018-09-15T17:26:40.374Z,22.63
2018-09-15T17:30:44.087Z,22.56
2018-09-15T17:34:48.055Z,22.49
2018-09-15T17:38:51.562Z,22.47
2018-09-15T17:42:55.075Z,22.42
2018-09-15T17:46:58.575Z,22.37
2018-09-15T17:51:02.099Z,22.31
2018-09-15T17:55:06.226Z,22.27
2018-09-15T17:59:09.842Z,22.23
2018-09-15T18:03:13.458Z,22.13
2018-09-15T18:07:17.091Z,22.03
2018-09-15T18:11:20.771Z,21.95
2018-09-15T18:15:24.305Z,21.88
2018-09-15T18:19:28.766Z,21.83
2018-09-15T18:23:32.310Z,21.80
2018-09-15T18:27:35.870Z,21.77
2018-09-15T18:31:39.366Z,21.75
2018-09-15T18:35:43.206Z,21.74
2018-09-15T18:39:46.799Z,21.71
2018-09-15T18:43:50.314Z,21.70
2018-09-15T18:47:53.989Z,21.66
2018-09-15T18:51:57.551Z,21.62
2018-09-15T18:56:03.107Z,21.61
2018-09-15T19:00:06.682Z,21.59
2018-09-15T19:04:10.190Z,21.58
2018-09-15T19:08:14.084Z,21.56
2018-09-15T19:12:17.733Z,21.54
2018-09-15T19:16:21.378Z,21.52
2018-09-15T19:20:25.047Z,21.47
2018-09-15T19:24:28.758Z,21.44
2018-09-15T19:28:32.298Z,21.41
2018-09-15T19:32:36.225Z,21.34
2018-09-15T19:36:40.051Z,21.30
2018-09-15T19:40:43.747Z,21.27
2018-09-15T19:44:47.299Z,21.25
2018-09-15T19:48:52.074Z,21.23
2018-09-15T19:52:55.563Z,21.19
2018-09-15T19:56:59.551Z,21.16
2018-09-15T20:01:03.022Z,21.11
2018-09-15T20:05:06.585Z,21.06
2018-09-15T20:09:11.388Z,21.03
2018-09-15T20:13:14.881Z,21.01
2018-09-15T20:17:17.318Z,20.97
2018-09-15T20:21:19.622Z,20.94
2018-09-15T20:25:23.138Z,20.92
2018-09-15T20:29:26.807Z,20.90
2018-09-15T20:33:30.356Z,20.87
2018-09-15T20:37:33.818Z,20.85
2018-09-15T20:41:37.425Z,20.80
2018-09-15T20:45:40.990Z,20.73
2018-09-15T20:49:44.551Z,20.68
2018-09-15T20:53:47.983Z,20.65
2018-09-15T20:57:51.556Z,20.60
2018-09-15T21:01:55.139Z,20.57
2018-09-15T21:05:58.714Z,20.53
2018-09-15T21:10:02.194Z,20.50
2018-09-15T21:14:05.823Z,20.47
2018-09-15T21:18:09.330Z,20.42
2018-09-15T21:22:12.922Z,20.40
2018-09-15T21:26:16.554Z,20.37
2018-09-15T21:30:20.255Z,20.29
2018-09-15T21:34:23.750Z,20.25
2018-09-15T21:38:27.402Z,20.24
2018-09-15T21:42:30.998Z,20.21
2018-09-15T21:46:34.785Z,20.13
2018-09-15T21:50:38.552Z,20.06
2018-09-15T21:54:42.231Z,20.04
2018-09-15T21:58:45.863Z,20.06
2018-09-15T22:02:49.457Z,20.08
2018-09-15T22:06:54.483Z,20.08
2018-09-15T22:10:57.980Z,20.07
2018-09-15T22:15:03.083Z,20.08
2018-09-15T22:19:06.990Z,20.09
2018-09-15T22:23:10.447Z,20.06
2018-09-15T22:27:14.244Z,20.03
2018-09-15T22:31:17.826Z,20.01
2018-09-15T22:35:21.385Z,20.00
2018-09-15T22:39:24.794Z,19.97
2018-09-15T22:43:28.324Z,19.91
2018-09-15T22:47:32.869Z,19.90
2018-09-15T22:51:36.473Z,19.91
2018-09-15T22:55:41.033Z,19.93
2018-09-15T22:59:44.726Z,19.95
2018-09-15T23:03:48.354Z,19.94
2018-09-15T23:07:52.090Z,19.92
2018-09-15T23:11:55.635Z,19.88
2018-09-15T23:15:59.184Z,19.83
2018-09-15T23:20:02.999Z,19.82
2018-09-15T23:24:06.762Z,19.82
2018-09-15T23:28:10.512Z,19.83
2018-09-15T23:32:14.015Z,19.80
2018-09-15T23:36:17.795Z,19.78
2018-09-15T23:40:21.448Z,19.74
2018-09-15T23:44:25.045Z,19.69
2018-09-15T23:48:28.624Z,19.69
2018-09-15T23:52:32.158Z,19.68
2018-09-15T23:56:36.778Z,19.69
